createdAt,value
2017-05-12T00:00:05.299Z,10.8
2017-05-12T00:01:23.986Z,10.8
2017-05-12T00:02:42.640Z,10.8
2017-05-12T00:04:01.301Z,10.8
2017-05-12T00:05:19.953Z,10.8
2017-05-12T00:06:38.631Z,10.8
2017-05-12T00:07:57.288Z,10.8
2017-05-12T00:09:15.949Z,10.8
2017-05-12T00:10:34.602Z,10.8
2017-05-12T00:11:53.258Z,10.8
2017-05-12T00:13:11.914Z,10.8
2017-05-12T00:14:30.612Z,10.8
2017-05-12T00:15:49.292Z,10.8
2017-05-12T00:17:08.004Z,10.8
2017-05-12T00:18:26.662Z,10.7
2017-05-12T00:19:45.323Z,10.7
2017-05-12T00:21:03.984Z,10.7
2017-05-12T00:22:22.657Z,10.7
2017-05-12T00:23:41.308Z,10.6
2017-05-12T00:24:59.958Z,10.6
2017-05-12T00:26:18.630Z,10.6
2017-05-12T00:27:37.284Z,10.5
2017-05-12T00:28:55.938Z,10.5
2017-05-12T00:30:14.597Z,10.5
2017-05-12T00:31:33.244Z,10.4
2017-05-12T00:32:51.926Z,10.4
2017-05-12T00:34:10.632Z,10.4
2017-05-12T00:35:29.332Z,10.3
2017-05-12T00:36:47.985Z,10.3
2017-05-12T00:38:06.638Z,10.3
2017-05-12T00:39:25.295Z,10.2
2017-05-12T00:40:43.999Z,10.2
2017-05-12T00:42:02.652Z,10.2
2017-05-12T00:43:21.305Z,10.1
2017-05-12T00:44:39.958Z,10.1
2017-05-12T00:45:58.617Z,10.1
2017-05-12T00:47:17.279Z,10.1
2017-05-12T00:48:35.925Z,10
2017-05-12T00:49:54.576Z,10
2017-05-12T00:51:13.232Z,10
2017-05-12T00:52:31.891Z,10
2017-05-12T00:53:50.637Z,9.9
2017-05-12T00:55:09.303Z,9.9
2017-05-12T00:56:27.938Z,9.9
2017-05-12T00:57:46.569Z,9.8
2017-05-12T00:59:05.202Z,9.8
2017-05-12T01:00:23.888Z,9.8
2017-05-12T01:01:42.514Z,9.8
2017-05-12T01:03:01.144Z,9.8
2017-05-12T01:04:19.832Z,9.8
2017-05-12T01:05:38.494Z,9.8
2017-05-12T01:06:57.136Z,9.8
2017-05-12T01:08:15.770Z,9.8
2017-05-12T01:09:34.426Z,9.8
2017-05-12T01:10:53.065Z,9.8
2017-05-12T01:12:11.702Z,9.8
2017-05-12T01:13:30.355Z,9.7
2017-05-12T01:14:49.030Z,9.7
2017-05-12T01:16:07.703Z,9.7
2017-05-12T01:17:26.331Z,9.6
2017-05-12T01:18:44.972Z,9.6
2017-05-12T01:20:03.608Z,9.6
2017-05-12T01:21:22.240Z,9.6
2017-05-12T01:22:40.869Z,9.6
2017-05-12T01:23:59.501Z,9.6
2017-05-12T01:25:18.172Z,9.7
2017-05-12T01:26:36.805Z,9.7
2017-05-12T01:27:55.473Z,9.7
2017-05-12T01:29:14.114Z,9.7
2017-05-12T01:30:32.791Z,9.8
2017-05-12T01:31:51.423Z,9.8
2017-05-12T01:33:10.053Z,9.8
2017-05-12T01:34:28.738Z,9.8
2017-05-12T01:35:47.378Z,9.8
2017-05-12T01:37:06.013Z,9.8
2017-05-12T01:38:24.642Z,9.8
2017-05-12T01:39:43.280Z,9.8
2017-05-12T01:41:01.980Z,9.8
2017-05-12T01:42:20.612Z,9.9
2017-05-12T01:43:39.250Z,9.9
2017-05-12T01:44:57.891Z,9.9
2017-05-12T01:46:16.526Z,9.8
2017-05-12T01:47:35.179Z,9.9
2017-05-12T01:48:53.837Z,9.9
2017-05-12T01:50:12.497Z,9.9
2017-05-12T01:51:31.136Z,9.9
2017-05-12T01:52:49.767Z,9.9
2017-05-12T01:54:08.437Z,9.9
2017-05-12T01:55:27.127Z,9.9
2017-05-12T01:56:45.818Z,9.9
2017-05-12T01:58:04.450Z,9.9
2017-05-12T01:59:23.089Z,9.9
2017-05-12T02:00:41.744Z,10
2017-05-12T02:02:00.455Z,10
2017-05-12T02:03:19.118Z,10
2017-05-12T02:04:37.771Z,10.1
2017-05-12T02:05:56.437Z,10.1
2017-05-12T02:07:15.101Z,10.1
2017-05-12T02:08:33.765Z,10.1
2017-05-12T02:09:52.444Z,10.1
2017-05-12T02:11:11.096Z,10.1
2017-05-12T02:12:29.771Z,10.2
2017-05-12T02:13:48.434Z,10.2
2017-05-12T02:15:07.098Z,10.2
2017-05-12T02:16:25.760Z,10.2
2017-05-12T02:17:44.413Z,10.2
2017-05-12T02:19:03.066Z,10.3
2017-05-12T02:20:21.710Z,10.3
2017-05-12T02:21:40.418Z,10.3
2017-05-12T02:22:59.093Z,10.3
2017-05-12T02:24:17.839Z,10.3
2017-05-12T02:25:36.539Z,10.3
2017-05-12T02:26:55.225Z,10.3
2017-05-12T02:28:13.918Z,10.2
2017-05-12T02:29:32.566Z,10.2
2017-05-12T02:30:51.263Z,10.2
2017-05-12T02:32:09.977Z,10.2
2017-05-12T02:33:28.649Z,10.2
2017-05-12T02:34:47.292Z,10.2
2017-05-12T02:36:05.941Z,10.1
2017-05-12T02:37:24.590Z,10.1
2017-05-12T02:38:43.238Z,10.1
2017-05-12T02:40:01.883Z,10.1
2017-05-12T02:41:20.541Z,10.1
2017-05-12T02:42:39.193Z,10
2017-05-12T02:43:57.876Z,10
2017-05-12T02:45:16.558Z,9.9
2017-05-12T02:46:35.225Z,9.9
2017-05-12T02:47:53.865Z,9.9
2017-05-12T02:49:12.507Z,9.9
2017-05-12T02:50:31.142Z,9.8
2017-05-12T02:51:49.773Z,9.8
2017-05-12T02:53:08.463Z,9.8
2017-05-12T02:54:27.102Z,9.8
2017-05-12T02:55:45.731Z,9.7
2017-05-12T02:57:04.366Z,9.7
2017-05-12T02:58:23.003Z,9.7
2017-05-12T02:59:41.649Z,9.8
2017-05-12T03:01:00.310Z,9.8
2017-05-12T03:02:18.978Z,9.8
2017-05-12T03:03:37.613Z,9.8
2017-05-12T03:04:56.249Z,9.9
2017-05-12T03:06:14.902Z,9.9
2017-05-12T03:07:33.544Z,9.9
2017-05-12T03:08:52.170Z,9.9
2017-05-12T03:10:10.830Z,9.9
2017-05-12T03:11:29.514Z,9.9
2017-05-12T03:12:48.141Z,9.9
2017-05-12T03:14:06.779Z,9.9
2017-05-12T03:15:25.479Z,9.9
2017-05-12T03:16:44.118Z,9.9
2017-05-12T03:18:02.750Z,9.9
2017-05-12T03:19:21.431Z,9.9
2017-05-12T03:20:40.094Z,9.9
2017-05-12T03:21:58.740Z,9.9
2017-05-12T03:23:17.418Z,9.8
2017-05-12T03:24:36.048Z,9.8
2017-05-12T03:25:54.684Z,9.8
2017-05-12T03:27:13.369Z,9.9
2017-05-12T03:28:32.001Z,9.8
2017-05-12T03:29:50.635Z,9.8
2017-05-12T03:31:09.295Z,9.8
2017-05-12T03:32:27.938Z,9.8
2017-05-12T03:33:46.572Z,9.7
2017-05-12T03:35:05.238Z,9.8
2017-05-12T03:36:23.883Z,9.8
2017-05-12T03:37:42.571Z,9.8
2017-05-12T03:39:01.244Z,9.8
2017-05-12T03:40:19.906Z,9.8
2017-05-12T03:41:38.538Z,9.8
2017-05-12T03:42:57.208Z,9.8
2017-05-12T03:44:15.845Z,9.9
2017-05-12T03:45:34.476Z,9.9
2017-05-12T03:46:53.114Z,9.9
2017-05-12T03:48:11.785Z,9.9
2017-05-12T03:49:30.441Z,10
2017-05-12T03:50:49.096Z,10
2017-05-12T03:52:07.742Z,10.1
2017-05-12T03:53:26.392Z,10.1
2017-05-12T03:54:45.052Z,10.2
2017-05-12T03:56:03.698Z,10.2
2017-05-12T03:57:22.347Z,10.2
2017-05-12T03:58:40.998Z,10.2
2017-05-12T03:59:59.720Z,10.3
2017-05-12T04:01:18.369Z,10.3
2017-05-12T04:02:37.040Z,10.3
2017-05-12T04:03:55.691Z,10.3
2017-05-12T04:05:14.342Z,10.3
2017-05-12T04:06:33.061Z,10.3
2017-05-12T04:07:51.750Z,10.3
2017-05-12T04:09:10.442Z,10.4
2017-05-12T04:10:29.109Z,10.4
2017-05-12T04:11:47.763Z,10.5
2017-05-12T04:13:06.467Z,10.6
2017-05-12T04:14:25.118Z,10.7
2017-05-12T04:15:43.781Z,10.8
2017-05-12T04:17:02.434Z,10.9
2017-05-12T04:18:21.101Z,10.9
2017-05-12T04:19:39.775Z,11
2017-05-12T04:20:58.424Z,11
2017-05-12T04:22:17.120Z,11.1
2017-05-12T04:23:35.782Z,11.1
2017-05-12T04:24:54.428Z,11.1
2017-05-12T04:26:13.138Z,11.2
2017-05-12T04:27:31.791Z,11.2
2017-05-12T04:28:50.456Z,11.3
2017-05-12T04:30:09.161Z,11.3
2017-05-12T04:31:27.866Z,11.3
2017-05-12T04:32:46.555Z,11.3
2017-05-12T04:34:05.233Z,11.4
2017-05-12T04:35:23.875Z,11.4
2017-05-12T04:36:42.527Z,11.5
2017-05-12T04:38:01.229Z,11.5
2017-05-12T04:39:19.887Z,11.5
2017-05-12T04:40:38.540Z,11.6
2017-05-12T04:41:57.239Z,11.6
2017-05-12T04:43:15.899Z,11.7
2017-05-12T04:44:34.585Z,11.7
2017-05-12T04:45:53.238Z,11.7
2017-05-12T04:47:11.891Z,11.8
2017-05-12T04:48:30.546Z,11.9
2017-05-12T04:49:49.240Z,11.9
2017-05-12T04:51:07.950Z,12
2017-05-12T04:52:26.643Z,12
2017-05-12T04:53:45.298Z,12.1
2017-05-12T04:55:03.967Z,12.2
2017-05-12T04:56:22.625Z,12.3
2017-05-12T04:57:41.290Z,12.4
2017-05-12T04:58:59.967Z,12.5
2017-05-12T05:00:18.626Z,12.6
2017-05-12T05:01:37.278Z,12.7
2017-05-12T05:02:55.935Z,12.7
2017-05-12T05:04:14.619Z,12.8
2017-05-12T05:05:33.296Z,12.8
2017-05-12T05:06:51.953Z,12.8
2017-05-12T05:08:10.602Z,12.8
2017-05-12T05:09:29.246Z,12.8
2017-05-12T05:10:47.950Z,12.7
2017-05-12T05:12:06.603Z,12.7
2017-05-12T05:13:25.284Z,12.7
2017-05-12T05:14:43.938Z,12.7
2017-05-12T05:16:02.595Z,12.7
2017-05-12T05:17:21.287Z,12.7
2017-05-12T05:18:39.938Z,12.7
2017-05-12T05:19:58.582Z,12.7
2017-05-12T05:21:17.230Z,12.7
2017-05-12T05:22:35.883Z,12.7
2017-05-12T05:23:54.619Z,12.7
2017-05-12T05:25:13.302Z,12.7
2017-05-12T05:26:32.008Z,12.8
2017-05-12T05:27:50.661Z,12.8
2017-05-12T05:29:09.341Z,12.8
2017-05-12T05:30:27.990Z,12.8
2017-05-12T05:31:46.687Z,12.8
2017-05-12T05:33:05.340Z,12.9
2017-05-12T05:34:23.989Z,12.9
2017-05-12T05:35:42.649Z,13
2017-05-12T05:37:01.327Z,13.2
2017-05-12T05:38:19.974Z,13.3
2017-05-12T05:39:38.624Z,13.5
2017-05-12T05:40:57.279Z,13.6
2017-05-12T05:42:15.934Z,13.7
2017-05-12T05:43:34.590Z,13.8
2017-05-12T05:44:53.270Z,13.9
2017-05-12T05:46:11.961Z,14
2017-05-12T05:47:30.612Z,14.1
2017-05-12T05:48:49.344Z,14.2
2017-05-12T05:50:07.995Z,14.4
2017-05-12T05:51:26.682Z,14.5
2017-05-12T05:52:45.339Z,14.6
2017-05-12T05:54:03.987Z,14.7
2017-05-12T05:55:22.692Z,14.8
2017-05-12T05:56:41.344Z,14.9
2017-05-12T05:58:00.040Z,15
2017-05-12T05:59:18.744Z,15
2017-05-12T06:00:37.419Z,15.1
2017-05-12T06:01:56.094Z,15.3
2017-05-12T06:03:14.745Z,15.4
2017-05-12T06:04:33.435Z,15.6
2017-05-12T06:05:52.093Z,15.7
2017-05-12T06:07:10.747Z,15.9
2017-05-12T06:08:29.453Z,16
2017-05-12T06:09:48.113Z,16.1
2017-05-12T06:11:06.769Z,16.2
2017-05-12T06:12:25.421Z,16.2
2017-05-12T06:13:44.120Z,16.2
2017-05-12T06:15:02.815Z,16.3
2017-05-12T06:16:21.463Z,16.4
2017-05-12T06:17:40.106Z,16.5
2017-05-12T06:18:58.774Z,16.5
2017-05-12T06:20:17.423Z,16.5
2017-05-12T06:21:36.127Z,16.5
2017-05-12T06:22:54.707Z,16.5
2017-05-12T06:24:13.363Z,16.5
2017-05-12T06:25:32.048Z,16.5
2017-05-12T06:26:50.699Z,16.6
2017-05-12T06:28:09.366Z,16.8
2017-05-12T06:29:28.022Z,16.8
2017-05-12T06:30:46.674Z,17
2017-05-12T06:32:05.329Z,17.1
2017-05-12T06:33:23.993Z,17.2
2017-05-12T06:34:42.669Z,17.4
2017-05-12T06:36:01.320Z,17.5
2017-05-12T06:37:19.965Z,17.6
2017-05-12T06:38:38.666Z,17.7
2017-05-12T06:39:57.330Z,17.7
2017-05-12T06:41:15.978Z,17.8
2017-05-12T06:42:34.630Z,17.8
2017-05-12T06:43:53.332Z,17.9
2017-05-12T06:45:11.984Z,17.9
2017-05-12T06:46:30.630Z,18
2017-05-12T06:47:49.327Z,18
2017-05-12T06:49:07.973Z,18
2017-05-12T06:50:26.676Z,18.1
2017-05-12T06:51:45.328Z,18.1
2017-05-12T06:53:04.003Z,18.2
2017-05-12T06:54:22.695Z,18.2
2017-05-12T06:55:41.354Z,18.3
2017-05-12T06:57:00.001Z,18.3
2017-05-12T06:58:18.650Z,18.4
2017-05-12T06:59:37.299Z,18.5
2017-05-12T07:00:55.947Z,18.6
2017-05-12T07:02:14.627Z,18.6
2017-05-12T07:03:33.278Z,18.7
2017-05-12T07:04:51.995Z,18.8
2017-05-12T07:06:10.643Z,18.9
2017-05-12T07:07:29.287Z,19
2017-05-12T07:08:47.987Z,19
2017-05-12T07:10:06.642Z,19
2017-05-12T07:11:25.328Z,18.7
2017-05-12T07:12:44.005Z,18.6
2017-05-12T07:14:02.660Z,18.5
2017-05-12T07:15:21.315Z,18.4
2017-05-12T07:16:39.966Z,18.4
2017-05-12T07:17:58.608Z,18.4
2017-05-12T07:19:17.255Z,18.4
2017-05-12T07:20:35.908Z,18.4
2017-05-12T07:21:54.557Z,18.5
2017-05-12T07:23:13.242Z,18.5
2017-05-12T07:24:31.899Z,18.5
2017-05-12T07:25:50.542Z,18.5
2017-05-12T07:27:09.231Z,18.5
2017-05-12T07:28:27.885Z,18.6
2017-05-12T07:29:46.588Z,18.5
2017-05-12T07:31:05.286Z,18.5
2017-05-12T07:32:23.998Z,18.5
2017-05-12T07:33:42.704Z,18.6
2017-05-12T07:35:01.411Z,18.7
2017-05-12T07:36:20.058Z,18.7
2017-05-12T07:37:38.717Z,18.7
2017-05-12T07:38:57.384Z,18.8
2017-05-12T07:40:16.044Z,18.8
2017-05-12T07:41:34.698Z,18.7
2017-05-12T07:42:53.373Z,18.7
2017-05-12T07:44:12.032Z,18.7
2017-05-12T07:45:30.687Z,18.6
2017-05-12T07:46:49.373Z,18.6
2017-05-12T07:48:08.051Z,18.8
2017-05-12T07:49:26.708Z,18.9
2017-05-12T07:50:45.356Z,19.1
2017-05-12T07:52:04.022Z,19.1
2017-05-12T07:53:22.672Z,19.2
2017-05-12T07:54:41.320Z,19.3
2017-05-12T07:55:59.974Z,19.3
2017-05-12T07:57:18.675Z,19.4
2017-05-12T07:58:37.328Z,19.4
2017-05-12T07:59:55.980Z,19.5
2017-05-12T08:01:14.661Z,19.6
2017-05-12T08:02:33.320Z,19.7
2017-05-12T08:03:51.970Z,19.8
2017-05-12T08:05:10.622Z,19.9
2017-05-12T08:06:29.284Z,19.9
2017-05-12T08:07:47.933Z,20
2017-05-12T08:09:06.579Z,20.1
2017-05-12T08:10:25.234Z,20.1
2017-05-12T08:11:43.913Z,20.1
2017-05-12T08:13:02.558Z,20.2
2017-05-12T08:14:21.246Z,20.3
2017-05-12T08:15:39.893Z,20.5
2017-05-12T08:16:58.548Z,20.6
2017-05-12T08:18:17.217Z,20.7
2017-05-12T08:19:35.864Z,20.8
2017-05-12T08:20:54.535Z,20.9
2017-05-12T08:22:13.234Z,20.9
2017-05-12T08:23:31.880Z,20.8
2017-05-12T08:24:50.529Z,20.8
2017-05-12T08:26:09.176Z,20.8
2017-05-12T08:27:27.838Z,20.7
2017-05-12T08:28:46.542Z,20.7
2017-05-12T08:30:05.200Z,20.9
2017-05-12T08:31:23.893Z,21
2017-05-12T08:32:42.569Z,21.1
2017-05-12T08:34:01.239Z,21.1
2017-05-12T08:35:19.911Z,21.1
2017-05-12T08:36:38.585Z,21.1
2017-05-12T08:37:57.234Z,21.2
2017-05-12T08:39:15.938Z,21.3
2017-05-12T08:40:34.630Z,21.4
2017-05-12T08:41:53.275Z,21.4
2017-05-12T08:43:11.978Z,21.6
2017-05-12T08:44:30.646Z,21.5
2017-05-12T08:45:49.300Z,21.5
2017-05-12T08:47:07.950Z,21.7
2017-05-12T08:48:26.608Z,21.8
2017-05-12T08:49:45.316Z,21.7
2017-05-12T08:51:03.965Z,21.8
2017-05-12T08:52:22.660Z,21.9
2017-05-12T08:53:41.317Z,21.9
2017-05-12T08:54:59.965Z,21.7
2017-05-12T08:56:18.675Z,21.8
2017-05-12T08:57:37.326Z,21.8
2017-05-12T08:58:55.986Z,21.8
2017-05-12T09:00:14.633Z,21.7
2017-05-12T09:01:33.300Z,21.7
2017-05-12T09:02:52.036Z,21.9
2017-05-12T09:04:10.707Z,22
2017-05-12T09:05:29.400Z,22
2017-05-12T09:06:48.057Z,22.1
2017-05-12T09:08:06.711Z,22.1
2017-05-12T09:09:25.360Z,22.1
2017-05-12T09:10:44.064Z,22.3
2017-05-12T09:12:02.735Z,22.3
2017-05-12T09:13:21.388Z,22.1
2017-05-12T09:14:40.034Z,22.1
2017-05-12T09:15:58.692Z,22.1
2017-05-12T09:17:17.375Z,22
2017-05-12T09:18:36.066Z,22
2017-05-12T09:19:54.779Z,21.8
2017-05-12T09:21:13.465Z,21.9
2017-05-12T09:22:32.118Z,21.9
2017-05-12T09:23:50.793Z,22
2017-05-12T09:25:09.446Z,21.9
2017-05-12T09:26:28.101Z,21.8
2017-05-12T09:27:46.801Z,22.1
2017-05-12T09:29:05.459Z,22.1
2017-05-12T09:30:24.106Z,22.1
2017-05-12T09:31:42.798Z,22
2017-05-12T09:33:01.458Z,21.9
2017-05-12T09:34:20.107Z,21.8
2017-05-12T09:35:38.776Z,21.9
2017-05-12T09:36:57.420Z,21.8
2017-05-12T09:38:16.076Z,21.6
2017-05-12T09:39:34.774Z,21.4
2017-05-12T09:40:53.482Z,21.5
2017-05-12T09:42:12.177Z,21.7
2017-05-12T09:43:30.830Z,21.6
2017-05-12T09:44:49.480Z,21.6
2017-05-12T09:46:08.138Z,21.5
2017-05-12T09:47:26.819Z,21.5
2017-05-12T09:48:45.478Z,21.8
2017-05-12T09:50:04.137Z,22
2017-05-12T09:51:22.838Z,22.2
2017-05-12T09:52:41.489Z,22.3
2017-05-12T09:54:00.145Z,22.4
2017-05-12T09:55:18.792Z,22.5
2017-05-12T09:56:37.482Z,22.8
2017-05-12T09:57:56.180Z,22.8
2017-05-12T09:59:14.833Z,22.8
2017-05-12T10:00:33.500Z,22.8
2017-05-12T10:01:52.152Z,22.8
2017-05-12T10:03:10.803Z,22.7
2017-05-12T10:04:29.487Z,22.9
2017-05-12T10:05:48.155Z,22.9
2017-05-12T10:07:06.842Z,22.9
2017-05-12T10:08:25.498Z,23.3
2017-05-12T10:09:44.146Z,23.6
2017-05-12T10:11:02.792Z,23.8
2017-05-12T10:12:21.442Z,23.7
2017-05-12T10:13:40.089Z,23.5
2017-05-12T10:14:58.745Z,23.3
2017-05-12T10:16:17.473Z,23.2
2017-05-12T10:17:36.127Z,23.2
2017-05-12T10:18:54.788Z,22.9
2017-05-12T10:20:13.446Z,22.5
2017-05-12T10:21:32.098Z,22.3
2017-05-12T10:22:50.753Z,22
2017-05-12T10:24:09.409Z,21.7
2017-05-12T10:25:28.124Z,21.6
2017-05-12T10:26:46.794Z,21.3
2017-05-12T10:28:05.441Z,21
2017-05-12T10:29:24.102Z,20.7
2017-05-12T10:30:42.746Z,20.5
2017-05-12T10:32:01.453Z,20.5
2017-05-12T10:33:20.130Z,20.6
2017-05-12T10:34:38.784Z,20.6
2017-05-12T10:35:57.464Z,20.4
2017-05-12T10:37:16.107Z,20.4
2017-05-12T10:38:34.764Z,20.3
2017-05-12T10:39:53.457Z,20.3
2017-05-12T10:41:12.106Z,20.4
2017-05-12T10:42:30.758Z,20.6
2017-05-12T10:43:49.406Z,20.8
2017-05-12T10:45:08.115Z,20.6
2017-05-12T10:46:26.774Z,20.5
2017-05-12T10:47:45.438Z,20.5
2017-05-12T10:49:04.088Z,20.6
2017-05-12T10:50:22.792Z,20.9
2017-05-12T10:51:41.526Z,21.3
2017-05-12T10:53:00.177Z,21.7
2017-05-12T10:54:18.867Z,21.9
2017-05-12T10:55:37.519Z,22.1
2017-05-12T10:56:56.169Z,22.1
2017-05-12T10:58:14.820Z,22.1
2017-05-12T10:59:33.506Z,22.4
2017-05-12T11:00:52.156Z,22.6
2017-05-12T11:02:10.800Z,22.9
2017-05-12T11:03:29.446Z,23.1
2017-05-12T11:04:48.146Z,23.4
2017-05-12T11:06:06.843Z,23.6
2017-05-12T11:07:25.493Z,23.8
2017-05-12T11:08:44.151Z,23.9
2017-05-12T11:10:02.832Z,23.9
2017-05-12T11:11:21.496Z,24.4
2017-05-12T11:12:40.170Z,24.7
2017-05-12T11:13:58.818Z,25.1
2017-05-12T11:15:17.525Z,25.3
2017-05-12T11:16:36.224Z,25.8
2017-05-12T11:17:54.873Z,26.1
2017-05-12T11:19:13.542Z,26.2
2017-05-12T11:20:32.238Z,26.4
2017-05-12T11:21:50.882Z,26.4
2017-05-12T11:23:09.538Z,26.9
2017-05-12T11:24:28.191Z,27.4
2017-05-12T11:25:46.846Z,27.6
2017-05-12T11:27:05.499Z,28.2
2017-05-12T11:28:24.148Z,28.6
2017-05-12T11:29:42.861Z,29
2017-05-12T11:31:01.566Z,28.8
2017-05-12T11:32:20.220Z,28.7
2017-05-12T11:33:38.907Z,28.5
2017-05-12T11:34:57.559Z,27.6
2017-05-12T11:36:16.255Z,27.2
2017-05-12T11:37:34.935Z,26.5
2017-05-12T11:38:53.658Z,26
2017-05-12T11:40:12.351Z,25.7
2017-05-12T11:41:30.997Z,25.2
2017-05-12T11:42:49.656Z,24.9
2017-05-12T11:44:08.311Z,24.5
2017-05-12T11:45:26.972Z,24.3
2017-05-12T11:46:45.681Z,24.6
2017-05-12T11:48:04.331Z,25
2017-05-12T11:49:23.015Z,25.3
2017-05-12T11:50:41.721Z,25.4
2017-05-12T11:52:00.409Z,25.4
2017-05-12T11:53:19.092Z,24.9
2017-05-12T11:54:37.792Z,24.4
2017-05-12T11:55:56.441Z,23.8
2017-05-12T11:57:15.096Z,23.2
2017-05-12T11:58:33.761Z,23
2017-05-12T11:59:52.414Z,22.7
2017-05-12T12:01:11.067Z,22.4
2017-05-12T12:02:29.715Z,22.2
2017-05-12T12:03:48.413Z,22.1
2017-05-12T12:05:07.064Z,22
2017-05-12T12:06:25.715Z,21.8
2017-05-12T12:07:44.359Z,21.7
2017-05-12T12:09:03.017Z,21.7
2017-05-12T12:10:21.668Z,21.7
2017-05-12T12:11:40.310Z,21.7
2017-05-12T12:12:58.958Z,21.7
2017-05-12T12:14:17.626Z,21.7
2017-05-12T12:15:36.281Z,21.7
2017-05-12T12:16:54.929Z,21.4
2017-05-12T12:18:13.624Z,21.2
2017-05-12T12:19:32.275Z,20.7
2017-05-12T12:20:50.930Z,20.3
2017-05-12T12:22:09.579Z,20.1
2017-05-12T12:23:28.229Z,19.8
2017-05-12T12:24:46.883Z,19.7
2017-05-12T12:26:05.572Z,19.5
2017-05-12T12:27:24.219Z,19.4
2017-05-12T12:28:42.878Z,19.4
2017-05-12T12:30:01.555Z,19.3
2017-05-12T12:31:20.203Z,19.1
2017-05-12T12:32:38.855Z,19.1
2017-05-12T12:33:57.577Z,19
2017-05-12T12:35:16.226Z,18.9
2017-05-12T12:36:34.876Z,18.9
2017-05-12T12:37:53.531Z,18.8
2017-05-12T12:39:12.183Z,18.5
2017-05-12T12:40:30.837Z,18.2
2017-05-12T12:41:49.497Z,18
2017-05-12T12:43:08.168Z,17.8
2017-05-12T12:44:26.817Z,17.8
2017-05-12T12:45:45.491Z,17.7
2017-05-12T12:47:04.145Z,17.8
2017-05-12T12:48:22.883Z,17.9
2017-05-12T12:49:41.532Z,17.9
2017-05-12T12:51:00.222Z,17.9
2017-05-12T12:52:18.877Z,18
2017-05-12T12:53:37.548Z,18
2017-05-12T12:54:56.199Z,18.1
2017-05-12T12:56:14.843Z,18.1
2017-05-12T12:57:33.547Z,18.1
2017-05-12T12:58:52.199Z,18
2017-05-12T13:00:10.899Z,18
2017-05-12T13:01:29.552Z,17.9
2017-05-12T13:02:48.204Z,17.8
2017-05-12T13:04:06.890Z,17.9
2017-05-12T13:05:25.541Z,18.1
2017-05-12T13:06:44.208Z,18.1
2017-05-12T13:08:02.879Z,18.3
2017-05-12T13:09:21.573Z,18.3
2017-05-12T13:10:40.229Z,18.3
2017-05-12T13:11:58.880Z,18.4
2017-05-12T13:13:17.619Z,18.4
2017-05-12T13:14:36.268Z,18.3
2017-05-12T13:15:54.920Z,18.3
2017-05-12T13:17:13.569Z,18.3
2017-05-12T13:18:32.220Z,18.2
2017-05-12T13:19:50.951Z,18.1
2017-05-12T13:21:09.600Z,18.1
2017-05-12T13:22:28.252Z,18.2
2017-05-12T13:23:46.911Z,18.2
2017-05-12T13:25:05.563Z,18.1
2017-05-12T13:26:24.219Z,18.1
2017-05-12T13:27:42.895Z,18
2017-05-12T13:29:01.557Z,17.9
2017-05-12T13:30:20.204Z,17.9
2017-05-12T13:31:38.852Z,17.9
2017-05-12T13:32:57.530Z,17.8
2017-05-12T13:34:16.175Z,17.6
2017-05-12T13:35:34.824Z,17.4
2017-05-12T13:36:53.478Z,17.3
2017-05-12T13:38:12.160Z,17
2017-05-12T13:39:30.862Z,16.8
2017-05-12T13:40:49.507Z,16.7
2017-05-12T13:42:08.203Z,16.6
2017-05-12T13:43:26.857Z,16.6
2017-05-12T13:44:45.542Z,16.5
2017-05-12T13:46:04.197Z,16.5
2017-05-12T13:47:22.851Z,16.5
2017-05-12T13:48:41.504Z,16.6
2017-05-12T13:50:00.158Z,16.6
2017-05-12T13:51:18.832Z,16.7
2017-05-12T13:52:37.513Z,16.8
2017-05-12T13:53:56.206Z,16.9
2017-05-12T13:55:14.855Z,17
2017-05-12T13:56:33.519Z,17
2017-05-12T13:57:52.177Z,17.1
2017-05-12T13:59:10.860Z,17.1
2017-05-12T14:00:29.525Z,17.1
2017-05-12T14:01:48.176Z,17.2
2017-05-12T14:03:06.827Z,17.3
2017-05-12T14:04:25.505Z,17.3
2017-05-12T14:05:44.161Z,17.2
2017-05-12T14:07:02.808Z,17.2
2017-05-12T14:08:21.464Z,17.3
2017-05-12T14:09:40.119Z,17.5
2017-05-12T14:10:58.820Z,17.7
2017-05-12T14:12:17.500Z,18.1
2017-05-12T14:13:36.149Z,18.5
2017-05-12T14:14:54.820Z,18.9
2017-05-12T14:16:13.500Z,19.5
2017-05-12T14:17:32.234Z,20
2017-05-12T14:18:50.885Z,20.4
2017-05-12T14:20:09.540Z,20.8
2017-05-12T14:21:28.221Z,21.2
2017-05-12T14:22:46.873Z,21.4
2017-05-12T14:24:05.580Z,21.7
2017-05-12T14:25:24.240Z,21.8
2017-05-12T14:26:42.902Z,21.9
2017-05-12T14:28:01.578Z,21.9
2017-05-12T14:29:20.236Z,22
2017-05-12T14:30:38.885Z,22.3
2017-05-12T14:31:57.589Z,22.6
2017-05-12T14:33:16.237Z,22.8
2017-05-12T14:34:34.921Z,22.8
2017-05-12T14:35:53.573Z,22.6
2017-05-12T14:37:12.244Z,22.6
2017-05-12T14:38:30.893Z,22.4
2017-05-12T14:39:49.543Z,22.2
2017-05-12T14:41:08.230Z,21.9
2017-05-12T14:42:26.877Z,21.7
2017-05-12T14:43:45.563Z,21.7
2017-05-12T14:45:04.267Z,21.7
2017-05-12T14:46:22.937Z,21.6
2017-05-12T14:47:41.621Z,21.4
2017-05-12T14:49:00.276Z,21.1
2017-05-12T14:50:18.930Z,20.8
2017-05-12T14:51:37.578Z,20.6
2017-05-12T14:52:56.229Z,20.3
2017-05-12T14:54:14.876Z,20.2
2017-05-12T14:55:33.558Z,20.2
2017-05-12T14:56:52.262Z,20
2017-05-12T14:58:10.909Z,19.8
2017-05-12T14:59:29.559Z,19.6
2017-05-12T15:00:48.249Z,19.4
2017-05-12T15:02:06.947Z,19.3
2017-05-12T15:03:25.666Z,19.3
2017-05-12T15:04:44.318Z,19
2017-05-12T15:06:02.966Z,18.9
2017-05-12T15:07:21.653Z,18.8
2017-05-12T15:08:40.294Z,18.7
2017-05-12T15:09:58.953Z,18.6
2017-05-12T15:11:17.646Z,18.5
2017-05-12T15:12:36.323Z,18.4
2017-05-12T15:13:55.024Z,18.3
2017-05-12T15:15:13.680Z,18.2
2017-05-12T15:16:32.330Z,18.2
2017-05-12T15:17:50.974Z,18.2
2017-05-12T15:19:09.687Z,18.2
2017-05-12T15:20:28.361Z,18.2
2017-05-12T15:21:47.088Z,18.2
2017-05-12T15:23:05.737Z,18.3
2017-05-12T15:24:24.386Z,18.3
2017-05-12T15:25:43.093Z,18.4
2017-05-12T15:27:01.754Z,18.5
2017-05-12T15:28:20.444Z,18.5
2017-05-12T15:29:39.099Z,18.6
2017-05-12T15:30:57.760Z,18.7
2017-05-12T15:32:16.464Z,18.8
2017-05-12T15:33:35.121Z,18.8
2017-05-12T15:34:53.781Z,18.8
2017-05-12T15:36:12.432Z,18.9
2017-05-12T15:37:31.081Z,18.9
2017-05-12T15:38:49.741Z,18.9
2017-05-12T15:40:08.393Z,18.9
2017-05-12T15:41:27.090Z,18.9
2017-05-12T15:42:45.736Z,19
2017-05-12T15:44:04.384Z,19.2
2017-05-12T15:45:23.041Z,19.3
2017-05-12T15:46:41.737Z,19.3
2017-05-12T15:48:00.398Z,19.4
2017-05-12T15:49:19.046Z,19.4
2017-05-12T15:50:37.731Z,19.5
2017-05-12T15:51:56.379Z,19.6
2017-05-12T15:53:15.031Z,19.6
2017-05-12T15:54:33.679Z,19.6
2017-05-12T15:55:52.322Z,19.7
2017-05-12T15:57:10.973Z,19.7
2017-05-12T15:58:29.675Z,19.6
2017-05-12T15:59:48.327Z,19.5
2017-05-12T16:01:06.998Z,19.4
2017-05-12T16:02:25.650Z,19.4
2017-05-12T16:03:44.345Z,19.2
2017-05-12T16:05:03.044Z,19.2
2017-05-12T16:06:21.728Z,19.2
2017-05-12T16:07:40.385Z,19.1
2017-05-12T16:08:59.039Z,19.1
2017-05-12T16:10:17.685Z,19
2017-05-12T16:11:36.328Z,18.9
2017-05-12T16:12:54.993Z,18.8
2017-05-12T16:14:13.647Z,18.8
2017-05-12T16:15:32.294Z,18.9
2017-05-12T16:16:50.947Z,19
2017-05-12T16:18:09.602Z,18.9
2017-05-12T16:19:28.312Z,18.9
2017-05-12T16:20:46.969Z,18.8
2017-05-12T16:22:05.670Z,18.7
2017-05-12T16:23:24.326Z,18.7
2017-05-12T16:24:42.980Z,18.7
2017-05-12T16:26:01.693Z,18.7
2017-05-12T16:27:20.341Z,18.8
2017-05-12T16:28:38.987Z,18.7
2017-05-12T16:29:57.686Z,18.8
2017-05-12T16:31:16.353Z,18.7
2017-05-12T16:32:35.061Z,18.7
2017-05-12T16:33:53.719Z,18.6
2017-05-12T16:35:12.377Z,18.6
2017-05-12T16:36:31.023Z,18.6
2017-05-12T16:37:49.707Z,18.6
2017-05-12T16:39:08.355Z,18.6
2017-05-12T16:40:27.005Z,18.5
2017-05-12T16:41:45.714Z,18.4
2017-05-12T16:43:04.369Z,18.4
2017-05-12T16:44:23.021Z,18.3
2017-05-12T16:45:41.692Z,18.2
2017-05-12T16:47:00.399Z,18.2
2017-05-12T16:48:19.045Z,18.2
2017-05-12T16:49:37.742Z,18.1
2017-05-12T16:50:56.402Z,18.1
2017-05-12T16:52:15.078Z,18.1
2017-05-12T16:53:33.796Z,18.1
2017-05-12T16:54:52.450Z,18.1
2017-05-12T16:56:11.149Z,18.1
2017-05-12T16:57:29.810Z,18.1
2017-05-12T16:58:48.454Z,18.2
2017-05-12T17:00:07.149Z,18.2
2017-05-12T17:01:25.802Z,18.3
2017-05-12T17:02:44.499Z,18.6
2017-05-12T17:04:03.151Z,19
2017-05-12T17:05:21.812Z,19.4
2017-05-12T17:06:40.512Z,19.4
2017-05-12T17:07:59.162Z,19.8
2017-05-12T17:09:17.829Z,20.1
2017-05-12T17:10:36.529Z,20.4
2017-05-12T17:11:55.238Z,20.4
2017-05-12T17:13:13.914Z,20.2
2017-05-12T17:14:32.570Z,20
2017-05-12T17:15:51.219Z,19.7
2017-05-12T17:17:09.936Z,20.4
2017-05-12T17:18:28.589Z,21.8
2017-05-12T17:19:47.247Z,21
2017-05-12T17:21:05.896Z,20.3
2017-05-12T17:22:24.546Z,19.5
2017-05-12T17:23:43.201Z,19.7
2017-05-12T17:25:01.919Z,20.5
2017-05-12T17:26:20.625Z,21.4
2017-05-12T17:27:39.303Z,22.8
2017-05-12T17:28:57.959Z,22.4
2017-05-12T17:30:16.661Z,22.1
2017-05-12T17:31:35.311Z,21.8
2017-05-12T17:32:53.993Z,21.4
2017-05-12T17:34:12.666Z,20.8
2017-05-12T17:35:31.420Z,20.3
2017-05-12T17:36:50.070Z,19.8